createdAt,value
2022-09-17T00:00:48.307Z,64.44
2022-09-17T00:03:16.286Z,66.33
2022-09-17T00:05:43.548Z,69.99
2022-09-17T00:08:15.141Z,68.31
2022-09-17T00:10:43.807Z,74.47
2022-09-17T00:13:11.871Z,71.56
2022-09-17T00:15:43.485Z,70.87
2022-09-17T00:18:11.311Z,72.36
2022-09-17T00:20:45.640Z,73.33
2022-09-17T00:23:13.975Z,70.08
2022-09-17T00:25:42.517Z,66.86
2022-09-17T00:28:09.777Z,68.43
2022-09-17T00:30:40.470Z,65.63
2022-09-17T00:33:07.364Z,63.53
2022-09-17T00:35:34.490Z,66.89
2022-09-17T00:38:01.369Z,65.31
2022-09-17T00:40:28.371Z,62.45
2022-09-17T00:42:55.284Z,62.92
2022-09-17T00:45:22.998Z,61.87
2022-09-17T00:47:58.841Z,64.32
2022-09-17T00:50:42.317Z,67.18
2022-09-17T00:53:14.851Z,67.54
2022-09-17T00:55:45.944Z,66.48
2022-09-17T00:58:13.674Z,65.75
2022-09-17T01:00:40.822Z,65.12
2022-09-17T01:03:07.997Z,62.26
2022-09-17T01:05:42.745Z,59.35
2022-09-17T01:08:34.609Z,60.91
2022-09-17T01:11:12.547Z,62.59
2022-09-17T01:14:06.739Z,63.51
2022-09-17T01:16:46.205Z,65.13
2022-09-17T01:19:38.894Z,67.23
2022-09-17T01:22:23.489Z,63.36
2022-09-17T01:25:05.131Z,62.00
2022-09-17T01:28:13.932Z,64.26
2022-09-17T01:30:59.653Z,62.85
2022-09-17T01:34:01.625Z,61.94
2022-09-17T01:36:38.594Z,58.66
2022-09-17T01:39:45.443Z,57.32
2022-09-17T01:42:38.324Z,58.36
2022-09-17T01:45:10.334Z,60.01
2022-09-17T01:47:44.976Z,59.14
2022-09-17T01:50:20.626Z,60.56
2022-09-17T01:52:50.169Z,61.57
2022-09-17T01:55:18.962Z,60.68
2022-09-17T01:57:54.017Z,61.96
2022-09-17T02:00:22.302Z,60.48
2022-09-17T02:03:08.524Z,58.69
2022-09-17T02:05:42.288Z,60.28
2022-09-17T02:08:16.338Z,66.49
2022-09-17T02:10:46.057Z,64.01
2022-09-17T02:13:33.332Z,63.19
2022-09-17T02:16:08.807Z,69.46
2022-09-17T02:18:57.347Z,64.51
2022-09-17T02:21:55.265Z,64.49
2022-09-17T02:24:25.909Z,63.83
2022-09-17T02:27:17.477Z,62.31
2022-09-17T02:29:45.259Z,66.41
2022-09-17T02:32:13.621Z,66.65
2022-09-17T02:34:40.630Z,62.26
2022-09-17T02:37:08.003Z,59.97
2022-09-17T02:39:35.127Z,59.44
2022-09-17T02:42:23.454Z,61.35
2022-09-17T02:45:06.347Z,62.33
2022-09-17T02:48:30.497Z,62.48
2022-09-17T02:51:33.438Z,63.66
2022-09-17T02:54:16.846Z,64.35
2022-09-17T02:56:52.234Z,63.31
2022-09-17T02:59:31.766Z,67.41
2022-09-17T03:02:20.136Z,69.83
2022-09-17T03:04:48.930Z,68.62
2022-09-17T03:07:18.443Z,68.78
2022-09-17T03:09:45.508Z,63.56
2022-09-17T03:12:13.393Z,65.08
2022-09-17T03:14:40.246Z,69.07
2022-09-17T03:17:07.235Z,67.35
2022-09-17T03:19:34.122Z,68.49
2022-09-17T03:22:00.971Z,68.75
2022-09-17T03:24:27.845Z,68.51
2022-09-17T03:26:55.144Z,71.98
2022-09-17T03:29:22.026Z,67.49
2022-09-17T03:31:48.977Z,65.46
2022-09-17T03:34:15.881Z,67.25
2022-09-17T03:36:42.841Z,66.98
2022-09-17T03:39:09.796Z,68.31
2022-09-17T03:41:36.714Z,67.13
2022-09-17T03:44:03.753Z,74.75
2022-09-17T03:46:30.847Z,70.77
2022-09-17T03:48:57.789Z,65.61
2022-09-17T03:51:24.696Z,63.61
2022-09-17T03:53:51.585Z,65.68
2022-09-17T03:56:18.548Z,67.23
2022-09-17T03:58:45.476Z,69.95
2022-09-17T04:01:12.366Z,67.21
2022-09-17T04:03:39.335Z,65.55
2022-09-17T04:06:06.460Z,67.60
2022-09-17T04:08:34.126Z,70.12
2022-09-17T04:11:01.005Z,66.91
2022-09-17T04:13:27.921Z,64.26
2022-09-17T04:15:55.155Z,66.18
2022-09-17T04:18:22.131Z,70.23
2022-09-17T04:20:48.971Z,70.64
2022-09-17T04:23:15.851Z,69.43
2022-09-17T04:25:43.085Z,69.24
2022-09-17T04:28:10.234Z,70.24
2022-09-17T04:30:37.394Z,67.57
2022-09-17T04:33:04.885Z,65.88
2022-09-17T04:35:31.795Z,67.34
2022-09-17T04:37:58.668Z,72.20
2022-09-17T04:40:26.575Z,69.21
2022-09-17T04:42:59.608Z,73.64
2022-09-17T04:45:26.742Z,67.93
2022-09-17T04:47:53.621Z,67.05
2022-09-17T04:50:20.595Z,70.79
2022-09-17T04:52:47.986Z,68.08
2022-09-17T04:55:15.699Z,64.14
2022-09-17T04:57:50.832Z,62.97
2022-09-17T05:00:19.009Z,64.09
2022-09-17T05:02:47.558Z,64.17
2022-09-17T05:05:14.786Z,65.90
2022-09-17T05:07:42.077Z,64.30
2022-09-17T05:10:09.983Z,65.86
2022-09-17T05:12:36.905Z,63.82
2022-09-17T05:15:04.765Z,61.81
2022-09-17T05:17:31.984Z,57.79
2022-09-17T05:19:58.836Z,63.34
2022-09-17T05:22:25.756Z,64.21
2022-09-17T05:24:52.671Z,62.21
2022-09-17T05:27:19.601Z,62.17
2022-09-17T05:29:46.884Z,59.05
2022-09-17T05:32:13.745Z,62.41
2022-09-17T05:34:41.656Z,60.76
2022-09-17T05:37:11.789Z,62.46
2022-09-17T05:39:38.636Z,62.08
2022-09-17T05:42:05.705Z,61.10
2022-09-17T05:44:32.848Z,59.50
2022-09-17T05:46:59.952Z,59.47
2022-09-17T05:49:26.930Z,67.30
2022-09-17T05:51:53.776Z,63.76
2022-09-17T05:54:20.843Z,63.29
2022-09-17T05:56:47.778Z,62.54
2022-09-17T05:59:15.762Z,64.48
2022-09-17T06:01:42.911Z,60.55
2022-09-17T06:04:09.868Z,62.33
2022-09-17T06:06:38.025Z,65.48
2022-09-17T06:09:08.963Z,67.56
2022-09-17T06:11:36.689Z,68.56
2022-09-17T06:14:03.944Z,68.09
2022-09-17T06:16:31.211Z,65.71
2022-09-17T06:18:58.156Z,61.77
2022-09-17T06:21:25.010Z,65.05
2022-09-17T06:23:51.980Z,63.62
2022-09-17T06:26:19.091Z,68.34
2022-09-17T06:28:46.471Z,68.41
2022-09-17T06:31:14.073Z,74.15
2022-09-17T06:33:41.102Z,69.49
2022-09-17T06:36:14.164Z,72.14
2022-09-17T06:38:41.696Z,73.72
2022-09-17T06:41:09.071Z,73.43
2022-09-17T06:43:36.136Z,70.90
2022-09-17T06:46:06.319Z,70.71
2022-09-17T06:48:35.203Z,74.35
2022-09-17T06:51:04.647Z,69.34
2022-09-17T06:53:32.025Z,68.97
2022-09-17T06:56:05.239Z,70.60
2022-09-17T06:58:34.190Z,70.71
2022-09-17T07:01:02.040Z,70.43
2022-09-17T07:03:30.268Z,70.39
2022-09-17T07:05:57.941Z,71.22
2022-09-17T07:08:26.249Z,73.09
2022-09-17T07:10:56.928Z,74.19
2022-09-17T07:13:24.654Z,70.79
2022-09-17T07:15:59.482Z,71.30
2022-09-17T07:18:27.052Z,71.20
2022-09-17T07:21:01.131Z,71.98
2022-09-17T07:23:30.242Z,70.35
2022-09-17T07:25:59.268Z,67.85
2022-09-17T07:28:26.662Z,65.65
2022-09-17T07:30:54.002Z,65.50
2022-09-17T07:33:26.119Z,65.30
2022-09-17T07:35:58.044Z,65.07
2022-09-17T07:38:25.665Z,62.28
2022-09-17T07:41:06.118Z,65.35
2022-09-17T07:43:34.515Z,63.70
2022-09-17T07:46:03.453Z,65.24
2022-09-17T07:48:30.545Z,69.62
2022-09-17T07:50:57.519Z,63.95
2022-09-17T07:53:24.630Z,65.90
2022-09-17T07:55:55.992Z,63.50
2022-09-17T07:58:34.588Z,65.09
2022-09-17T08:01:03.386Z,67.44
2022-09-17T08:03:30.792Z,68.07
2022-09-17T08:06:08.803Z,67.81
2022-09-17T08:08:36.720Z,65.50
2022-09-17T08:11:23.688Z,64.67
2022-09-17T08:14:00.064Z,64.76
2022-09-17T08:16:27.062Z,63.12
2022-09-17T08:18:57.790Z,68.90
2022-09-17T08:21:24.897Z,67.84
2022-09-17T08:23:51.791Z,68.79
2022-09-17T08:26:21.741Z,70.37
2022-09-17T08:28:56.610Z,66.58
2022-09-17T08:31:25.400Z,65.01
2022-09-17T08:33:52.375Z,66.40
2022-09-17T08:36:21.345Z,65.24
2022-09-17T08:38:49.866Z,66.74
2022-09-17T08:41:24.659Z,68.99
2022-09-17T08:44:31.943Z,67.96
2022-09-17T08:47:02.060Z,66.48
2022-09-17T08:49:34.920Z,65.49
2022-09-17T08:52:07.184Z,65.39
2022-09-17T08:54:55.096Z,64.93
2022-09-17T08:57:24.973Z,60.68
2022-09-17T08:59:57.845Z,62.76
2022-09-17T09:02:39.460Z,66.29
2022-09-17T09:05:10.819Z,66.27
2022-09-17T09:07:43.368Z,69.40
2022-09-17T09:10:17.977Z,67.25
2022-09-17T09:12:45.125Z,66.45
2022-09-17T09:15:45.889Z,67.07
2022-09-17T09:18:27.492Z,70.69
2022-09-17T09:20:59.964Z,71.61
2022-09-17T09:23:58.751Z,71.12
2022-09-17T09:26:46.391Z,72.70
2022-09-17T09:29:31.592Z,64.84
2022-09-17T09:32:16.689Z,68.41
2022-09-17T09:34:44.306Z,68.85
2022-09-17T09:37:14.124Z,74.35
2022-09-17T09:39:46.048Z,72.50
2022-09-17T09:42:25.412Z,70.69
2022-09-17T09:44:52.373Z,73.62
2022-09-17T09:47:40.340Z,70.00
2022-09-17T09:50:48.381Z,70.66
2022-09-17T09:53:26.193Z,70.05
2022-09-17T09:55:55.973Z,71.87
2022-09-17T09:58:40.737Z,73.23
2022-09-17T10:01:16.509Z,72.66
2022-09-17T10:03:46.406Z,71.73
2022-09-17T10:06:16.877Z,72.23
2022-09-17T10:09:03.610Z,70.95
2022-09-17T10:11:34.902Z,74.77
2022-09-17T10:14:18.478Z,76.95
2022-09-17T10:16:45.576Z,76.72
2022-09-17T10:19:28.000Z,72.76
2022-09-17T10:21:54.989Z,74.25
2022-09-17T10:24:27.991Z,72.63
2022-09-17T10:27:06.308Z,67.01
2022-09-17T10:29:33.877Z,69.60
2022-09-17T10:32:00.949Z,69.57
2022-09-17T10:34:29.691Z,68.34
2022-09-17T10:36:57.434Z,67.87
2022-09-17T10:39:27.316Z,68.24
2022-09-17T10:42:17.443Z,69.88
2022-09-17T10:45:04.700Z,68.35
2022-09-17T10:47:36.933Z,65.06
2022-09-17T10:50:16.557Z,65.33
2022-09-17T10:52:49.249Z,64.02
2022-09-17T10:55:35.188Z,63.77
2022-09-17T10:58:08.237Z,64.18
2022-09-17T11:00:35.055Z,64.89
2022-09-17T11:03:17.329Z,66.80
2022-09-17T11:05:57.948Z,64.91
2022-09-17T11:08:42.805Z,64.64
2022-09-17T11:11:12.389Z,64.54
2022-09-17T11:13:55.023Z,62.86
2022-09-17T11:16:46.966Z,60.77
2022-09-17T11:19:22.914Z,60.46
2022-09-17T11:22:04.509Z,59.48
2022-09-17T11:24:59.219Z,59.90
2022-09-17T11:27:50.491Z,60.49
2022-09-17T11:30:18.434Z,68.34
2022-09-17T11:32:55.070Z,61.76
2022-09-17T11:35:25.958Z,59.06
2022-09-17T11:38:03.993Z,57.72
2022-09-17T11:40:42.918Z,57.72
2022-09-17T11:43:26.766Z,59.57
2022-09-17T11:46:13.939Z,60.19
2022-09-17T11:49:16.978Z,62.31
2022-09-17T11:51:59.039Z,63.36
2022-09-17T11:54:30.379Z,66.96
2022-09-17T11:57:12.099Z,65.77
2022-09-17T11:59:54.687Z,61.36
2022-09-17T12:02:39.163Z,62.74
2022-09-17T12:05:11.887Z,62.24
2022-09-17T12:07:47.645Z,63.27
2022-09-17T12:10:33.335Z,62.78
2022-09-17T12:13:14.567Z,63.59
2022-09-17T12:15:49.744Z,63.63
2022-09-17T12:18:32.956Z,61.92
2022-09-17T12:21:02.902Z,63.44
2022-09-17T12:23:40.635Z,60.78
2022-09-17T12:26:22.812Z,60.39
2022-09-17T12:28:57.736Z,56.90
2022-09-17T12:31:37.490Z,56.44
2022-09-17T12:34:32.487Z,59.56
2022-09-17T12:37:22.626Z,60.22
2022-09-17T12:39:58.586Z,59.88
2022-09-17T12:42:38.938Z,61.16
2022-09-17T12:45:32.859Z,57.20
2022-09-17T12:48:25.505Z,60.87
2022-09-17T12:51:19.801Z,59.35
2022-09-17T12:53:46.647Z,60.28
2022-09-17T12:56:54.015Z,62.39
2022-09-17T12:59:22.632Z,58.83
2022-09-17T13:02:05.075Z,61.14
2022-09-17T13:05:00.989Z,61.90
2022-09-17T13:07:48.631Z,62.61
2022-09-17T13:10:41.222Z,63.98
2022-09-17T13:13:49.731Z,61.55
2022-09-17T13:16:24.212Z,60.45
2022-09-17T13:19:16.232Z,59.96
2022-09-17T13:21:50.866Z,61.05
2022-09-17T13:24:20.211Z,61.76
2022-09-17T13:26:47.131Z,60.21
2022-09-17T13:29:48.857Z,61.49
2022-09-17T13:32:51.486Z,61.22
2022-09-17T13:35:18.352Z,60.98
2022-09-17T13:37:54.224Z,63.39
2022-09-17T13:40:28.467Z,61.67
2022-09-17T13:42:57.559Z,62.07
2022-09-17T13:45:25.537Z,60.09
2022-09-17T13:47:56.497Z,61.18
2022-09-17T13:50:34.083Z,59.72
2022-09-17T13:53:16.105Z,59.20
2022-09-17T13:55:48.405Z,59.29
2022-09-17T13:58:21.133Z,58.94
2022-09-17T14:00:58.944Z,60.23
2022-09-17T14:03:31.816Z,58.61
2022-09-17T14:06:19.643Z,60.48
2022-09-17T14:08:54.767Z,60.16
2022-09-17T14:11:25.448Z,63.44
2022-09-17T14:13:55.663Z,61.76
2022-09-17T14:16:29.362Z,61.35
2022-09-17T14:19:22.543Z,60.88
2022-09-17T14:21:59.832Z,62.38
2022-09-17T14:24:33.155Z,61.19
2022-09-17T14:27:16.411Z,61.06
2022-09-17T14:29:49.342Z,62.46
2022-09-17T14:32:46.928Z,61.25
2022-09-17T14:35:20.200Z,64.13
2022-09-17T14:37:55.105Z,62.95
2022-09-17T14:40:24.747Z,64.61
2022-09-17T14:42:55.344Z,60.94
2022-09-17T14:45:37.506Z,60.47
2022-09-17T14:48:26.647Z,62.13
2022-09-17T14:51:11.554Z,58.96
2022-09-17T14:53:38.456Z,57.71
2022-09-17T14:56:05.836Z,58.73
2022-09-17T14:58:36.684Z,62.38
2022-09-17T15:01:03.765Z,62.78
2022-09-17T15:03:30.640Z,63.98
2022-09-17T15:05:57.565Z,66.36
2022-09-17T15:08:26.073Z,64.03
2022-09-17T15:11:04.418Z,64.80
2022-09-17T15:13:36.124Z,65.49
2022-09-17T15:16:05.126Z,65.96
2022-09-17T15:18:55.157Z,63.89
2022-09-17T15:21:43.215Z,59.42
2022-09-17T15:24:21.920Z,61.72
2022-09-17T15:26:54.098Z,58.94
2022-09-17T15:29:27.425Z,57.86
2022-09-17T15:31:54.479Z,56.83
2022-09-17T15:34:22.840Z,59.35
2022-09-17T15:37:18.696Z,60.81
2022-09-17T15:39:51.541Z,63.96
2022-09-17T15:42:27.854Z,65.83
2022-09-17T15:45:17.203Z,66.01
2022-09-17T15:47:58.879Z,66.13
2022-09-17T15:50:33.125Z,65.71
2022-09-17T15:53:09.182Z,66.41
2022-09-17T15:55:38.521Z,66.38
2022-09-17T15:58:21.310Z,65.18
2022-09-17T16:00:48.270Z,63.60
2022-09-17T16:03:36.841Z,64.27
2022-09-17T16:06:04.940Z,66.41
2022-09-17T16:08:35.473Z,65.76
2022-09-17T16:11:02.412Z,65.98
2022-09-17T16:13:29.292Z,66.26
2022-09-17T16:15:56.306Z,63.12
2022-09-17T16:18:23.293Z,65.51
2022-09-17T16:20:50.143Z,65.48
2022-09-17T16:23:17.036Z,66.28
2022-09-17T16:25:44.199Z,65.58
2022-09-17T16:28:13.994Z,65.09
2022-09-17T16:30:48.433Z,64.37
2022-09-17T16:33:16.926Z,64.45
2022-09-17T16:35:44.220Z,64.80
2022-09-17T16:38:11.845Z,65.15
2022-09-17T16:40:43.290Z,67.05
2022-09-17T16:43:10.239Z,66.79
2022-09-17T16:45:37.407Z,64.19
2022-09-17T16:48:05.312Z,67.03
2022-09-17T16:50:32.645Z,63.63
2022-09-17T16:53:04.165Z,63.05
2022-09-17T16:55:31.923Z,64.34
2022-09-17T16:57:59.177Z,64.60
2022-09-17T17:00:26.116Z,66.19
2022-09-17T17:02:57.387Z,69.01
2022-09-17T17:05:25.618Z,63.69
2022-09-17T17:07:52.599Z,64.93
2022-09-17T17:10:20.438Z,66.18
2022-09-17T17:12:47.522Z,65.88
2022-09-17T17:15:14.523Z,66.72
2022-09-17T17:17:41.388Z,68.01
2022-09-17T17:20:09.986Z,63.60
2022-09-17T17:22:37.986Z,63.96
2022-09-17T17:25:06.344Z,62.99
2022-09-17T17:27:34.067Z,67.35
2022-09-17T17:30:04.658Z,66.96
2022-09-17T17:32:31.792Z,66.69
2022-09-17T17:34:58.724Z,65.32
2022-09-17T17:37:26.947Z,67.39
2022-09-17T17:39:54.529Z,67.50
2022-09-17T17:42:21.836Z,67.72
2022-09-17T17:44:48.749Z,67.18
2022-09-17T17:47:15.685Z,66.52
2022-09-17T17:49:44.655Z,62.30
2022-09-17T17:52:11.603Z,61.65
2022-09-17T17:54:38.510Z,62.52
2022-09-17T17:57:05.439Z,65.07
2022-09-17T17:59:32.367Z,66.70
2022-09-17T18:01:59.350Z,62.85
2022-09-17T18:04:26.387Z,63.91
2022-09-17T18:06:53.244Z,60.18
2022-09-17T18:09:20.156Z,62.58
2022-09-17T18:11:47.016Z,62.89
2022-09-17T18:14:14.179Z,63.76
2022-09-17T18:16:41.092Z,63.20
2022-09-17T18:19:09.788Z,63.61
2022-09-17T18:21:36.663Z,63.77
2022-09-17T18:24:03.709Z,65.70
2022-09-17T18:26:31.719Z,62.74
2022-09-17T18:28:58.600Z,61.28
2022-09-17T18:31:29.535Z,66.59
2022-09-17T18:33:58.786Z,63.91
2022-09-17T18:36:27.290Z,63.85
2022-09-17T18:39:16.715Z,64.26
2022-09-17T18:41:48.573Z,65.06
2022-09-17T18:44:15.523Z,65.97
2022-09-17T18:46:42.835Z,64.84
2022-09-17T18:49:09.881Z,63.86
2022-09-17T18:51:38.057Z,69.61
2022-09-17T18:54:04.992Z,68.76
2022-09-17T18:56:36.030Z,67.87
2022-09-17T18:59:07.757Z,67.14
2022-09-17T19:01:35.646Z,68.87
2022-09-17T19:04:03.060Z,68.48
2022-09-17T19:06:30.651Z,66.93
2022-09-17T19:09:00.841Z,69.00
2022-09-17T19:11:28.106Z,70.53
2022-09-17T19:13:55.261Z,68.33
2022-09-17T19:16:22.555Z,67.66
2022-09-17T19:18:49.826Z,69.38
2022-09-17T19:21:18.878Z,68.36
2022-09-17T19:23:47.402Z,71.53
2022-09-17T19:26:16.839Z,71.57
2022-09-17T19:28:43.822Z,72.44
2022-09-17T19:31:13.433Z,73.99
2022-09-17T19:33:40.414Z,76.42
2022-09-17T19:36:10.779Z,75.79
2022-09-17T19:38:38.160Z,75.53
2022-09-17T19:41:07.313Z,78.42
2022-09-17T19:43:34.352Z,76.05
2022-09-17T19:46:27.675Z,79.87
2022-09-17T19:48:56.542Z,79.14
2022-09-17T19:51:26.019Z,77.50
2022-09-17T19:53:53.341Z,77.99
2022-09-17T19:56:23.213Z,78.75
2022-09-17T19:58:50.586Z,76.71
2022-09-17T20:01:17.884Z,77.76
2022-09-17T20:03:45.675Z,77.76
2022-09-17T20:06:14.415Z,77.70
2022-09-17T20:08:50.419Z,77.39
2022-09-17T20:11:21.683Z,76.14
2022-09-17T20:13:48.965Z,76.84
2022-09-17T20:16:18.942Z,76.79
2022-09-17T20:18:46.111Z,75.45
2022-09-17T20:21:15.512Z,76.06
2022-09-17T20:23:42.564Z,74.45
2022-09-17T20:26:10.080Z,76.08
2022-09-17T20:28:36.979Z,73.11
2022-09-17T20:31:12.697Z,72.58
2022-09-17T20:33:39.615Z,74.58
2022-09-17T20:36:10.342Z,75.40
2022-09-17T20:41:24.906Z,73.93
2022-09-17T20:43:52.843Z,73.08
2022-09-17T20:46:24.822Z,74.00
2022-09-17T20:48:55.041Z,73.42
2022-09-17T20:51:23.694Z,73.72
2022-09-17T20:53:51.259Z,74.54
2022-09-17T20:56:22.521Z,73.28
2022-09-17T20:59:07.953Z,74.77
2022-09-17T21:01:35.898Z,73.64
2022-09-17T21:04:04.510Z,73.77
2022-09-17T21:06:33.433Z,72.71
2022-09-17T21:09:00.776Z,73.27
2022-09-17T21:11:29.348Z,72.97
2022-09-17T21:13:56.215Z,72.90
2022-09-17T21:16:23.161Z,75.53
2022-09-17T21:18:58.545Z,75.02
2022-09-17T21:21:26.318Z,74.33
2022-09-17T21:23:53.597Z,76.64
2022-09-17T21:26:22.876Z,75.80
2022-09-17T21:28:51.263Z,76.77
2022-09-17T21:31:29.591Z,76.57
2022-09-17T21:34:03.472Z,73.03
2022-09-17T21:36:32.833Z,73.69
2022-09-17T21:39:02.746Z,72.52
2022-09-17T21:41:30.110Z,73.69
2022-09-17T21:43:56.978Z,74.25
2022-09-17T21:46:26.337Z,75.52
2022-09-17T21:48:56.078Z,73.53
2022-09-17T21:51:25.168Z,77.30
2022-09-17T21:53:53.866Z,73.26
2022-09-17T21:56:21.739Z,73.54
2022-09-17T21:58:56.462Z,72.42
2022-09-17T22:01:31.596Z,73.43
2022-09-17T22:03:59.505Z,75.03
2022-09-17T22:06:30.157Z,74.27
2022-09-17T22:08:58.614Z,72.82
2022-09-17T22:11:29.715Z,73.89
2022-09-17T22:14:00.873Z,71.81
2022-09-17T22:16:30.820Z,73.07
2022-09-17T22:18:59.679Z,73.35
2022-09-17T22:21:28.207Z,72.44
2022-09-17T22:23:57.553Z,70.35
2022-09-17T22:26:25.593Z,70.79
2022-09-17T22:28:52.858Z,72.40
2022-09-17T22:31:20.558Z,71.42
2022-09-17T22:33:48.429Z,71.18
2022-09-17T22:36:20.715Z,73.08
2022-09-17T22:38:49.562Z,71.69
2022-09-17T22:41:18.628Z,72.53
2022-09-17T22:43:45.862Z,72.18
2022-09-17T22:46:19.724Z,72.43
2022-09-17T22:48:47.592Z,73.70
2022-09-17T22:51:15.115Z,72.66
2022-09-17T22:53:42.424Z,72.06
2022-09-17T22:56:14.598Z,71.22
2022-09-17T22:58:42.492Z,71.08
2022-09-17T23:01:15.822Z,71.90
2022-09-17T23:03:43.471Z,71.70
2022-09-17T23:06:18.773Z,70.20
2022-09-17T23:08:45.679Z,69.58
2022-09-17T23:11:24.069Z,71.15
2022-09-17T23:13:51.839Z,69.34
2022-09-17T23:16:19.579Z,70.02
2022-09-17T23:18:46.591Z,70.86
2022-09-17T23:21:16.642Z,71.40
2022-09-17T23:23:45.411Z,69.32
2022-09-17T23:26:18.777Z,68.51
2022-09-17T23:28:45.970Z,71.94
2022-09-17T23:31:18.379Z,71.36
2022-09-17T23:33:46.235Z,69.07
2022-09-17T23:36:16.038Z,68.19
2022-09-17T23:38:44.614Z,68.68
2022-09-17T23:41:29.421Z,71.47
2022-09-17T23:43:58.773Z,69.50
2022-09-17T23:46:27.115Z,70.68
2022-09-17T23:48:54.550Z,69.25
2022-09-17T23:51:22.719Z,68.53
2022-09-17T23:53:49.736Z,66.21
2022-09-17T23:56:19.700Z,66.69
2022-09-17T23:58:46.665Z,69.15
